Latest Weather Observations for Mount Keith

IDW60801

Issued at 7:35 pm WST Saturday 25 October 2014 (issued every 30 minutes, with the page automatically refreshed every 10 minutes)

About weather observations | Map of weather stations | Latest weather observations for WA | Other Formats
Station Details ID: 512019 Name: MOUNT KEITH Lat: -27.29 Lon: 120.55 Height: 542.33 m
Data from the previous 72 hours. | See also: Recent months for locations in Western Australia
Date/Time
WST
Temp
°C
App
Temp
°C
Dew
Point
Rel
Hum
%
Delta-T
°C
Wind Press
QNH
hPa
Press
MSL
hPa
Rain
since 9 am
mm
Dir
 
Spd
km/h
Gust
km/h
Spd
kts
Gust
kts
25/07:30pm 29.1 23.9 -0.1 15 14.2 WSW 17 20 9 11 1016.2 1013.7 0.0
25/07:00pm 30.1 24.3 -1.3 13 15.0 WSW 19 24 10 13 1016.0 1013.4 0.0
25/06:30pm 31.1 25.3 -1.6 12 15.7 WSW 19 26 10 14 1015.6 1013.0 0.0
25/06:00pm 32.2 25.4 -2.0 11 16.4 W 24 33 13 18 1015.1 1012.5 0.0
25/05:30pm 33.2 25.6 -2.5 10 17.1 W 28 37 15 20 1014.7 1012.2 0.0
25/05:00pm 34.2 27.0 -1.7 10 17.6 W 26 32 14 17 1014.3 1011.7 0.0
25/04:30pm 34.6 27.5 -1.4 10 17.8 WNW 26 37 14 20 1014.2 1011.6 0.0
25/04:00pm 35.0 27.3 -2.6 9 18.2 WNW 28 39 15 21 1014.2 1011.6 0.0
25/03:30pm 35.7 27.5 -3.6 8 18.9 WNW 30 41 16 22 1014.1 1011.5 0.0
25/03:06pm 35.3 26.5 -5.7 7 19.0 WNW 32 50 17 27 1014.1 1011.5 0.0
25/03:00pm 35.4 26.7 -5.6 7 19.0 WNW 32 44 17 24 1014.1 1011.5 0.0
25/02:30pm 36.2 26.7 -7.0 6 19.7 WNW 35 44 19 24 1014.1 1011.5 0.0
25/02:00pm 35.9 27.2 -5.2 7 19.3 NW 32 44 17 24 1014.3 1011.7 0.0
25/01:51pm 36.5 27.1 -6.8 6 19.9 WNW 35 54 19 29 1014.3 1011.7 0.0
25/01:30pm 36.2 27.3 -7.0 6 19.7 WNW 32 48 17 26 1014.4 1011.8 0.0
25/01:10pm 36.3 27.4 -7.0 6 19.8 WNW 32 50 17 27 1014.5 1011.9 0.0
25/01:00pm 36.5 27.6 -4.8 7 19.5 WNW 33 46 18 25 1014.5 1011.9 0.0
25/12:30pm 36.3 27.4 -7.0 6 19.8 WNW 32 59 17 32 1014.7 1012.2 0.0
25/12:21pm 36.3 26.5 -7.0 6 19.8 W 37 59 20 32 1014.7 1012.2 0.0
25/12:01pm 35.5 26.6 -5.5 7 19.1 NW 33 56 18 30 1014.8 1012.3 0.0
25/12:00pm 35.5 26.6 -5.5 7 19.1 NW 33 50 18 27 1014.8 1012.3 0.0
25/11:32am 35.8 27.5 -5.3 7 19.2 NW 30 52 16 28 1015.1 1012.5 0.0
25/11:30am 36.0 28.2 -3.4 8 19.0 NW 28 43 15 23 1015.2 1012.6 0.0
25/11:00am 35.3 27.9 -3.9 8 18.7 NW 26 44 14 24 1015.4 1012.8 0.0
25/10:30am 34.5 27.0 -4.5 8 18.3 NW 26 39 14 21 1015.7 1013.1 0.0
25/10:00am 33.6 26.6 -3.6 9 17.6 NW 24 35 13 19 1015.7 1013.1 0.0
25/09:30am 33.3 26.6 -3.8 9 17.4 NW 22 35 12 19 1015.9 1013.3 0.0
25/09:00am 32.9 26.4 -2.7 10 17.0 NW 22 33 12 18 1015.9 1013.3 0.0
25/08:30am 31.7 26.6 1.0 14 15.5 NNW 17 24 9 13 1016.0 1013.4 0.0
25/08:00am 30.0 25.7 3.1 18 13.9 NNW 15 19 8 10 1016.0 1013.4 0.0
25/07:30am 27.9 23.7 3.6 21 12.5 NNW 15 20 8 11 1015.9 1013.3 0.0
25/07:00am 26.2 21.8 2.8 22 11.7 NNW 15 20 8 11 1015.7 1013.1 0.0
25/06:30am 24.4 20.6 3.7 26 10.4 NW 13 19 7 10 1015.4 1012.8 0.0
25/06:00am 22.6 19.1 3.7 29 9.4 NNW 11 13 6 7 1015.2 1012.6 0.0
25/05:30am 20.3 17.5 5.1 37 7.7 NW 9 13 5 7 1014.8 1012.3 0.0
25/05:00am 20.8 17.1 4.4 34 8.2 NNW 13 17 7 9 1014.5 1011.9 0.0
25/04:30am 20.9 17.6 4.5 34 8.2 NW 11 13 6 7 1014.5 1011.9 0.0
25/04:00am 19.7 17.0 5.7 40 7.1 NW 9 11 5 6 1014.1 1011.5 0.0
25/03:30am 19.6 17.7 7.4 45 6.4 NNW 7 9 4 5 1014.0 1011.4 0.0
25/03:00am 19.7 18.2 9.3 51 5.6 NW 7 7 4 4 1013.9 1011.3 0.0
25/02:30am 19.3 17.5 7.1 45 6.3 NW 6 6 3 3 1013.8 1011.2 0.0
25/02:00am 20.6 18.1 6.5 40 7.3 WNW 9 11 5 6 1013.7 1011.1 0.0
25/01:30am 20.7 18.5 7.7 43 6.9 W 9 11 5 6 1013.7 1011.1 0.0
25/01:00am 21.3 20.2 8.6 44 6.9 WSW 4 9 2 5 1013.9 1011.3 0.0
25/12:30am 20.5 19.9 8.8 47 6.3 WSW 2 6 1 3 1014.3 1011.7 0.0
25/12:00am 23.0 19.9 5.4 32 9.1 WSW 11 13 6 7 1014.5 1011.9 0.0
 
Date/Time
WST
Temp
°C
App
Temp
°C
Dew
Point
Rel
Hum
%
Delta-T
°C
Wind Press
QNH
hPa
Press
MSL
hPa
Rain
since 9 am
mm
Dir
 
Spd
km/h
Gust
km/h
Spd
kts
Gust
kts
24/11:30pm 23.4 20.2 5.3 31 9.3 WSW 11 13 6 7 1014.7 1012.2 0.0
24/11:00pm 24.0 20.4 4.9 29 9.8 SW 13 15 7 8 1014.8 1012.3 0.0
24/10:30pm 25.0 21.3 4.2 26 10.6 SW 13 15 7 8 1015.1 1012.5 0.0
24/10:00pm 24.8 21.3 5.6 29 10.0 WSW 13 13 7 7 1015.1 1012.5 0.0
24/09:30pm 25.9 22.5 3.8 24 11.3 WSW 11 11 6 6 1015.1 1012.5 0.0
24/09:00pm 26.0 22.8 5.0 26 10.9 WSW 11 11 6 6 1014.8 1012.3 0.0
24/08:30pm 26.8 23.4 4.0 23 11.7 WSW 11 11 6 6 1014.6 1012.1 0.0
24/08:00pm 27.4 24.0 3.8 22 12.1 WSW 11 11 6 6 1014.3 1011.7 0.0
24/07:30pm 28.8 25.2 2.9 19 13.2 WSW 11 13 6 7 1014.0 1011.4 0.0
24/07:00pm 30.0 25.8 1.5 16 14.3 WSW 13 17 7 9 1013.6 1011.0 0.0
24/06:30pm 31.8 27.7 0.0 13 15.8 W 11 15 6 8 1013.2 1010.6 0.0
24/06:00pm 33.5 28.1 -1.0 11 17.0 W 17 22 9 12 1012.7 1010.1 0.0
24/05:30pm 34.7 29.1 -0.1 11 17.5 NW 19 28 10 15 1012.5 1009.9 0.0
24/05:00pm 35.3 30.7 1.6 12 17.5 WNW 15 24 8 13 1012.3 1009.7 0.0
24/04:30pm 35.2 30.2 1.5 12 17.5 WNW 17 24 9 13 1012.3 1009.7 0.0
24/04:00pm 35.3 29.4 1.6 12 17.5 WNW 22 32 12 17 1012.3 1009.7 0.0
24/03:30pm 35.5 28.5 1.8 12 17.6 WNW 28 37 15 20 1012.6 1010.0 0.0
24/03:00pm 35.4 28.9 0.5 11 17.9 NNW 24 33 13 18 1012.9 1010.4 0.0
24/02:30pm 34.6 29.0 1.1 12 17.2 WNW 20 35 11 19 1013.2 1010.6 0.0
24/02:00pm 35.1 29.5 1.5 12 17.4 WNW 20 35 11 19 1013.6 1011.0 0.0
24/01:30pm 34.3 30.1 1.9 13 16.8 NNW 13 28 7 15 1013.8 1011.2 0.0
24/01:00pm 34.3 28.2 3.0 14 16.5 WNW 24 32 13 17 1014.3 1011.7 0.0
24/12:30pm 33.9 28.7 3.6 15 16.1 NNW 20 28 11 15 1014.8 1012.3 0.0
24/12:00pm 32.8 28.0 4.6 17 15.2 N 19 28 10 15 1015.3 1012.7 0.0
24/11:30am 31.4 27.7 4.2 18 14.4 NNE 13 24 7 13 1015.9 1013.3 0.0
24/11:00am 30.7 27.2 3.7 18 14.1 N 11 20 6 11 1016.2 1013.7 0.0
24/10:30am 29.8 25.6 3.7 19 13.6 E 15 20 8 11 1016.5 1014.0 0.0
24/10:00am 29.2 24.6 3.9 20 13.2 ENE 17 22 9 12 1016.7 1014.2 0.0
24/09:30am 28.6 24.6 4.8 22 12.6 E 15 20 8 11 1017.1 1014.5 0.0
24/09:00am 27.4 22.7 5.1 24 11.7 ESE 19 26 10 14 1017.3 1014.7 -
24/08:30am 26.0 21.1 5.0 26 10.9 ESE 20 26 11 14 1017.3 1014.7 -
24/08:00am 24.6 19.7 4.9 28 10.1 ESE 20 28 11 15 1017.1 1014.5 -
24/07:30am 23.7 18.3 4.6 29 9.7 ESE 22 28 12 15 1016.8 1014.3 -
24/07:00am 22.1 17.9 5.9 35 8.4 SE 17 20 9 11 1016.7 1014.2 -
24/06:30am 20.3 16.8 5.5 38 7.5 SE 13 19 7 10 1016.6 1014.1 -
24/06:00am 17.9 15.7 6.4 47 5.8 SE 7 9 4 5 1016.6 1014.1 -
24/05:30am 16.7 14.3 6.8 52 5.0 SSE 9 9 5 5 1016.5 1014.0 -
24/05:00am 16.8 14.6 6.0 49 5.4 SE 7 9 4 5 1016.5 1014.0 -
24/04:30am 17.7 14.9 5.3 44 6.2 SSE 9 13 5 7 1016.3 1013.8 -
24/04:00am 18.2 15.4 5.1 42 6.5 S 9 11 5 6 1015.8 1013.2 -
24/03:30am 19.0 16.1 4.7 39 7.1 S 9 13 5 7 1015.7 1013.1 -
24/03:00am 19.1 16.2 4.8 39 7.1 S 9 13 5 7 1015.5 1012.9 0.0
24/02:30am 19.3 16.0 4.3 37 7.4 S 11 13 6 7 1015.5 1012.9 -
24/02:00am 19.8 16.1 4.3 36 7.7 S 13 15 7 8 1015.6 1013.0 -
24/01:30am 20.1 16.7 3.8 34 8.0 S 11 13 6 7 1015.7 1013.1 -
24/01:00am 20.4 16.9 3.6 33 8.2 SSW 11 13 6 7 1016.0 1013.4 -
24/12:30am 20.7 17.3 3.9 33 8.3 SSW 11 13 6 7 1016.2 1013.7 -
24/12:00am 21.1 17.6 3.3 31 8.7 S 11 13 6 7 1016.3 1013.8 -
 
Date/Time
WST
Temp
°C
App
Temp
°C
Dew
Point
Rel
Hum
%
Delta-T
°C
Wind Press
QNH
hPa
Press
MSL
hPa
Rain
since 9 am
mm
Dir
 
Spd
km/h
Gust
km/h
Spd
kts
Gust
kts
23/11:30pm 21.8 18.2 3.0 29 9.2 SSW 11 15 6 8 1016.4 1013.9 -
23/11:00pm 21.1 18.5 4.2 33 8.4 S 7 9 4 5 1016.4 1013.9 -
23/10:30pm 22.0 18.9 3.6 30 9.1 S 9 11 5 6 1016.6 1014.1 -
23/10:00pm 23.2 20.4 3.2 27 9.9 S 7 9 4 5 1016.6 1014.1 -
23/09:30pm 24.1 20.9 2.9 25 10.5 S 9 13 5 7 1016.4 1013.9 -
23/09:00pm 25.0 20.5 2.4 23 11.2 SSW 15 19 8 10 1016.2 1013.7 0.0
23/08:30pm 25.3 21.6 2.1 22 11.4 SSW 11 15 6 8 1016.2 1013.7 -
23/08:00pm 26.0 22.2 2.0 21 11.8 SW 11 17 6 9 1015.9 1013.3 -
23/07:30pm 25.8 22.7 3.7 24 11.2 W 9 11 5 6 1015.7 1013.1 -
23/07:00pm 27.2 23.9 2.3 20 12.5 W 9 13 5 7 1015.3 1012.7 -
23/06:30pm 28.5 24.9 2.7 19 13.1 W 11 13 6 7 1014.8 1012.3 -
23/06:00pm 29.7 25.6 2.1 17 14.0 WNW 13 19 7 10 1014.4 1011.8 -
23/05:30pm 30.9 27.1 3.8 18 14.2 W 13 20 7 11 1014.0 1011.4 -
23/05:00pm 30.7 26.5 3.7 18 14.1 W 15 20 8 11 1013.8 1011.2 -
23/04:30pm 31.3 26.4 4.2 18 14.4 WNW 19 30 10 16 1013.8 1011.2 -
23/04:00pm 30.7 25.7 4.4 19 13.9 W 20 28 11 15 1013.7 1011.1 -
23/03:30pm 31.0 27.6 6.1 21 13.6 NW 13 26 7 14 1013.8 1011.2 -
23/03:00pm 30.4 25.9 6.3 22 13.2 WSW 19 24 10 13 1014.0 1011.4 -
23/02:30pm 30.7 26.1 6.6 22 13.2 W 20 33 11 18 1014.3 1011.7 -
23/02:00pm 29.9 25.9 6.5 23 12.8 WSW 17 22 9 12 1014.4 1011.8 -
23/01:30pm 29.7 25.9 7.6 25 12.3 WSW 17 26 9 14 1014.6 1012.1 -
23/01:00pm 28.9 24.0 6.9 25 12.0 W 22 33 12 18 1015.1 1012.5 -
23/12:30pm 27.6 24.6 7.5 28 11.0 WNW 13 20 7 11 1015.5 1012.9 -
23/12:00pm 27.0 24.9 8.4 31 10.3 SSW 9 19 5 10 1015.9 1013.3 -
23/11:30am 25.8 24.0 7.9 32 9.8 WNW 7 19 4 10 1016.3 1013.8 -
23/11:00am 25.2 23.1 8.2 34 9.3 W 9 17 5 9 1016.6 1014.1 -
23/10:30am 24.6 22.1 8.1 35 9.0 SW 11 20 6 11 1017.2 1014.6 -
23/10:00am 23.2 20.2 7.7 37 8.3 S 13 20 7 11 1017.6 1015.0 -
23/09:00am 22.4 19.1 8.1 40 7.7 SSW 15 24 8 13 1018.1 1015.6 0.0
23/08:30am 22.1 18.1 8.9 43 7.2 SSW 20 26 11 14 1018.1 1015.6 0.0
23/08:00am 21.7 17.9 8.9 44 7.0 S 19 28 10 15 1018.0 1015.5 0.0
23/07:30am 21.7 18.0 9.3 45 6.8 SSE 19 24 10 13 1017.8 1015.2 0.0
23/07:00am 21.3 17.6 9.5 47 6.5 S 19 24 10 13 1017.6 1015.0 0.0
23/06:30am 20.4 16.7 9.6 50 5.9 S 19 30 10 16 1017.4 1014.8 0.0
23/06:00am 19.7 17.3 9.9 53 5.4 S 13 17 7 9 1017.3 1014.7 0.0
23/05:30am 19.6 16.4 10.0 54 5.3 S 17 24 9 13 1016.9 1014.4 0.0
23/05:00am 20.1 14.3 9.4 50 5.8 SSW 30 39 16 21 1015.7 1013.1 0.0
23/04:30am 20.7 16.4 8.0 44 6.8 SW 20 26 11 14 1015.7 1013.1 0.0
23/04:00am 21.7 16.4 6.8 38 7.8 WSW 24 33 13 18 1015.4 1012.8 0.0
23/03:30am 22.4 17.9 7.0 37 8.1 WSW 20 28 11 15 1015.1 1012.5 0.0
23/03:00am 23.6 19.3 7.7 36 8.6 W 20 26 11 14 1014.9 1012.4 0.0
23/02:30am 23.9 19.7 7.5 35 8.8 W 19 26 10 14 1014.8 1012.3 0.0
23/02:00am 25.0 20.1 6.7 31 9.8 W 22 28 12 15 1014.6 1012.1 0.0
23/01:30am 25.6 21.0 6.3 29 10.3 WNW 20 28 11 15 1014.6 1012.1 0.0
23/01:00am 26.0 21.4 5.6 27 10.7 WNW 19 24 10 13 1014.9 1012.4 0.0
23/12:30am 26.1 21.9 5.7 27 10.8 WNW 17 20 9 11 1015.4 1012.8 0.0
23/12:00am 25.9 22.8 5.5 27 10.7 NW 11 17 6 9 1015.7 1013.1 0.0
 
Date/Time
WST
Temp
°C
App
Temp
°C
Dew
Point
Rel
Hum
%
Delta-T
°C
Wind Press
QNH
hPa
Press
MSL
hPa
Rain
since 9 am
mm
Dir
 
Spd
km/h
Gust
km/h
Spd
kts
Gust
kts
22/11:30pm 25.9 22.5 6.0 28 10.5 WNW 13 19 7 10 1016.1 1013.5 0.0
22/11:00pm 26.4 22.9 5.4 26 11.0 NW 13 19 7 10 1016.3 1013.8 0.0
22/10:30pm 27.0 22.1 5.3 25 11.4 W 20 26 11 14 1016.1 1013.5 0.0
22/10:00pm 26.2 22.9 6.3 28 10.6 W 13 17 7 9 1016.4 1013.9 0.0
22/09:30pm 26.2 22.9 6.3 28 10.6 NW 13 17 7 9 1016.9 1014.4 0.0
22/09:00pm 25.8 23.4 6.9 30 10.2 NW 9 11 5 6 1016.9 1014.4 0.0
22/08:30pm 26.5 23.9 6.0 27 10.9 NW 9 11 5 6 1016.9 1014.4 0.0
22/08:00pm 27.0 24.0 5.9 26 11.2 WNW 11 15 6 8 1016.8 1014.3 0.0

Other Formats:

Comma delimited format used in spreadsheet applications
http://www.bom.gov.au/fwo/IDW60801/IDW60801.99434.axf

JavaScript Object Notation format (JSON) in row-major order
http://www.bom.gov.au/fwo/IDW60801/IDW60801.99434.json